sensor_id;sensor_type;location;lat;lon;timestamp;P1;durP1;ratioP1;P2;durP2;ratioP2
3070;SDS011;1546;47.208;9.038;2023-04-24T00:02:07;3.63;;;2.35;;
3070;SDS011;1546;47.208;9.038;2023-04-24T00:04:36;4.35;;;2.00;;
3070;SDS011;1546;47.208;9.038;2023-04-24T00:07:05;3.40;;;2.10;;
3070;SDS011;1546;47.208;9.038;2023-04-24T00:09:32;4.10;;;1.90;;
3070;SDS011;1546;47.208;9.038;2023-04-24T00:11:59;3.95;;;2.20;;
3070;SDS011;1546;47.208;9.038;2023-04-24T00:14:27;3.80;;;1.80;;
3070;SDS011;1546;47.208;9.038;2023-04-24T00:16:55;4.25;;;2.28;;
3070;SDS011;1546;47.208;9.038;2023-04-24T00:19:23;3.70;;;3.00;;
3070;SDS011;1546;47.208;9.038;2023-04-24T00:21:50;3.70;;;3.05;;
3070;SDS011;1546;47.208;9.038;2023-04-24T00:24:17;3.58;;;2.80;;
3070;SDS011;1546;47.208;9.038;2023-04-24T00:26:44;4.30;;;2.75;;
3070;SDS011;1546;47.208;9.038;2023-04-24T00:29:11;7.90;;;2.50;;
3070;SDS011;1546;47.208;9.038;2023-04-24T00:31:38;4.55;;;2.40;;
3070;SDS011;1546;47.208;9.038;2023-04-24T00:34:07;4.00;;;2.08;;
3070;SDS011;1546;47.208;9.038;2023-04-24T00:36:35;3.30;;;1.42;;
3070;SDS011;1546;47.208;9.038;2023-04-24T00:39:02;3.30;;;1.50;;
3070;SDS011;1546;47.208;9.038;2023-04-24T00:41:29;3.50;;;1.58;;
3070;SDS011;1546;47.208;9.038;2023-04-24T00:43:56;5.38;;;2.03;;
3070;SDS011;1546;47.208;9.038;2023-04-24T00:46:23;3.88;;;1.65;;
3070;SDS011;1546;47.208;9.038;2023-04-24T00:48:50;3.35;;;1.50;;
3070;SDS011;1546;47.208;9.038;2023-04-24T00:51:18;3.42;;;1.50;;
3070;SDS011;1546;47.208;9.038;2023-04-24T00:53:46;3.50;;;1.80;;
3070;SDS011;1546;47.208;9.038;2023-04-24T00:56:12;3.92;;;1.95;;
3070;SDS011;1546;47.208;9.038;2023-04-24T00:58:40;3.90;;;2.10;;
3070;SDS011;1546;47.208;9.038;2023-04-24T01:01:07;4.00;;;2.33;;
3070;SDS011;1546;47.208;9.038;2023-04-24T01:03:36;4.75;;;3.05;;
3070;SDS011;1546;47.208;9.038;2023-04-24T01:06:04;7.30;;;2.30;;
3070;SDS011;1546;47.208;9.038;2023-04-24T01:08:33;4.05;;;1.95;;
3070;SDS011;1546;47.208;9.038;2023-04-24T01:11:01;5.43;;;2.05;;
3070;SDS011;1546;47.208;9.038;2023-04-24T01:13:31;4.68;;;1.85;;
3070;SDS011;1546;47.208;9.038;2023-04-24T01:15:58;4.28;;;1.80;;
3070;SDS011;1546;47.208;9.038;2023-04-24T01:18:26;3.42;;;2.30;;
3070;SDS011;1546;47.208;9.038;2023-04-24T01:20:53;3.97;;;2.42;;
3070;SDS011;1546;47.208;9.038;2023-04-24T01:23:24;4.43;;;2.63;;
3070;SDS011;1546;47.208;9.038;2023-04-24T01:25:51;22.90;;;5.30;;
3070;SDS011;1546;47.208;9.038;2023-04-24T01:28:18;4.93;;;3.65;;
3070;SDS011;1546;47.208;9.038;2023-04-24T01:30:46;14.82;;;4.30;;
3070;SDS011;1546;47.208;9.038;2023-04-24T01:33:13;5.00;;;4.35;;
3070;SDS011;1546;47.208;9.038;2023-04-24T01:35:40;5.07;;;4.57;;
3070;SDS011;1546;47.208;9.038;2023-04-24T01:38:07;4.90;;;4.50;;
3070;SDS011;1546;47.208;9.038;2023-04-24T01:40:35;6.38;;;5.88;;
3070;SDS011;1546;47.208;9.038;2023-04-24T01:43:02;7.63;;;7.03;;
3070;SDS011;1546;47.208;9.038;2023-04-24T01:45:30;7.25;;;6.75;;
3070;SDS011;1546;47.208;9.038;2023-04-24T01:47:57;7.85;;;7.25;;
3070;SDS011;1546;47.208;9.038;2023-04-24T01:50:24;6.25;;;5.75;;
3070;SDS011;1546;47.208;9.038;2023-04-24T01:52:51;7.80;;;7.22;;
3070;SDS011;1546;47.208;9.038;2023-04-24T01:55:18;8.10;;;7.05;;
3070;SDS011;1546;47.208;9.038;2023-04-24T01:57:46;8.02;;;7.32;;
3070;SDS011;1546;47.208;9.038;2023-04-24T02:00:13;7.32;;;6.70;;
3070;SDS011;1546;47.208;9.038;2023-04-24T02:02:40;6.40;;;5.90;;
3070;SDS011;1546;47.208;9.038;2023-04-24T02:05:08;5.90;;;5.40;;
3070;SDS011;1546;47.208;9.038;2023-04-24T02:07:36;6.63;;;6.05;;
3070;SDS011;1546;47.208;9.038;2023-04-24T02:10:03;5.90;;;5.40;;
3070;SDS011;1546;47.208;9.038;2023-04-24T02:12:31;7.32;;;6.70;;
3070;SDS011;1546;47.208;9.038;2023-04-24T02:15:00;7.57;;;6.97;;
3070;SDS011;1546;47.208;9.038;2023-04-24T02:17:27;7.95;;;7.28;;
3070;SDS011;1546;47.208;9.038;2023-04-24T02:19:53;7.07;;;6.47;;
3070;SDS011;1546;47.208;9.038;2023-04-24T02:22:20;7.25;;;6.65;;
3070;SDS011;1546;47.208;9.038;2023-04-24T02:24:47;8.55;;;7.95;;
3070;SDS011;1546;47.208;9.038;2023-04-24T02:27:14;9.30;;;8.70;;
3070;SDS011;1546;47.208;9.038;2023-04-24T02:29:41;8.43;;;7.82;;
3070;SDS011;1546;47.208;9.038;2023-04-24T02:32:09;10.18;;;9.57;;
3070;SDS011;1546;47.208;9.038;2023-04-24T02:34:37;11.82;;;11.02;;
3070;SDS011;1546;47.208;9.038;2023-04-24T02:37:04;8.63;;;8.10;;
3070;SDS011;1546;47.208;9.038;2023-04-24T02:39:30;8.05;;;7.45;;
3070;SDS011;1546;47.208;9.038;2023-04-24T02:41:57;8.88;;;8.30;;
3070;SDS011;1546;47.208;9.038;2023-04-24T02:44:25;8.57;;;7.72;;
3070;SDS011;1546;47.208;9.038;2023-04-24T02:46:51;8.27;;;7.45;;
3070;SDS011;1546;47.208;9.038;2023-04-24T02:49:20;7.47;;;6.88;;
3070;SDS011;1546;47.208;9.038;2023-04-24T02:51:46;8.82;;;5.40;;
3070;SDS011;1546;47.208;9.038;2023-04-24T02:54:13;7.72;;;6.35;;
3070;SDS011;1546;47.208;9.038;2023-04-24T02:56:40;7.57;;;7.07;;
3070;SDS011;1546;47.208;9.038;2023-04-24T02:59:07;7.85;;;7.18;;
3070;SDS011;1546;47.208;9.038;2023-04-24T03:01:35;5.25;;;4.85;;
3070;SDS011;1546;47.208;9.038;2023-04-24T03:04:02;5.50;;;5.00;;
3070;SDS011;1546;47.208;9.038;2023-04-24T03:06:30;6.25;;;3.58;;
3070;SDS011;1546;47.208;9.038;2023-04-24T03:08:57;17.42;;;4.10;;
3070;SDS011;1546;47.208;9.038;2023-04-24T03:11:24;4.00;;;3.25;;
3070;SDS011;1546;47.208;9.038;2023-04-24T03:13:51;3.85;;;2.70;;
3070;SDS011;1546;47.208;9.038;2023-04-24T03:16:18;4.50;;;2.08;;
3070;SDS011;1546;47.208;9.038;2023-04-24T03:18:45;3.20;;;1.80;;
3070;SDS011;1546;47.208;9.038;2023-04-24T03:21:12;3.50;;;2.20;;
3070;SDS011;1546;47.208;9.038;2023-04-24T03:23:40;3.35;;;1.90;;
3070;SDS011;1546;47.208;9.038;2023-04-24T03:26:07;4.32;;;2.30;;
3070;SDS011;1546;47.208;9.038;2023-04-24T03:28:33;4.10;;;2.80;;
3070;SDS011;1546;47.208;9.038;2023-04-24T03:31:00;3.47;;;2.25;;
3070;SDS011;1546;47.208;9.038;2023-04-24T03:33:28;5.63;;;2.72;;
3070;SDS011;1546;47.208;9.038;2023-04-24T03:35:55;4.80;;;4.25;;
3070;SDS011;1546;47.208;9.038;2023-04-24T03:38:22;4.68;;;3.08;;
3070;SDS011;1546;47.208;9.038;2023-04-24T03:40:50;4.50;;;3.75;;
3070;SDS011;1546;47.208;9.038;2023-04-24T03:43:17;5.10;;;4.60;;
3070;SDS011;1546;47.208;9.038;2023-04-24T03:45:43;5.03;;;4.63;;
3070;SDS011;1546;47.208;9.038;2023-04-24T03:48:10;7.68;;;7.18;;
3070;SDS011;1546;47.208;9.038;2023-04-24T03:50:37;6.07;;;3.17;;
3070;SDS011;1546;47.208;9.038;2023-04-24T03:53:04;3.90;;;2.90;;
3070;SDS011;1546;47.208;9.038;2023-04-24T03:55:31;6.90;;;5.75;;
3070;SDS011;1546;47.208;9.038;2023-04-24T03:57:59;5.15;;;4.63;;
3070;SDS011;1546;47.208;9.038;2023-04-24T04:00:26;6.78;;;6.28;;
3070;SDS011;1546;47.208;9.038;2023-04-24T04:02:53;6.63;;;6.13;;
3070;SDS011;1546;47.208;9.038;2023-04-24T04:05:20;5.45;;;4.95;;
3070;SDS011;1546;47.208;9.038;2023-04-24T04:07:46;5.28;;;3.58;;
3070;SDS011;1546;47.208;9.038;2023-04-24T04:10:13;3.70;;;2.65;;
3070;SDS011;1546;47.208;9.038;2023-04-24T04:12:40;4.03;;;2.38;;
3070;SDS011;1546;47.208;9.038;2023-04-24T04:15:08;6.72;;;2.78;;
3070;SDS011;1546;47.208;9.038;2023-04-24T04:17:36;3.42;;;2.20;;
3070;SDS011;1546;47.208;9.038;2023-04-24T04:20:04;3.88;;;3.03;;
3070;SDS011;1546;47.208;9.038;2023-04-24T04:22:34;8.25;;;1.98;;
3070;SDS011;1546;47.208;9.038;2023-04-24T04:25:01;3.70;;;2.08;;
3070;SDS011;1546;47.208;9.038;2023-04-24T04:27:28;5.85;;;3.20;;
3070;SDS011;1546;47.208;9.038;2023-04-24T04:29:57;3.45;;;2.35;;
3070;SDS011;1546;47.208;9.038;2023-04-24T04:32:25;3.63;;;2.17;;
3070;SDS011;1546;47.208;9.038;2023-04-24T04:34:52;3.40;;;2.22;;
3070;SDS011;1546;47.208;9.038;2023-04-24T04:37:19;5.10;;;4.40;;
3070;SDS011;1546;47.208;9.038;2023-04-24T04:39:46;4.90;;;4.40;;
3070;SDS011;1546;47.208;9.038;2023-04-24T04:42:13;4.60;;;4.20;;
3070;SDS011;1546;47.208;9.038;2023-04-24T04:44:40;7.43;;;4.60;;
3070;SDS011;1546;47.208;9.038;2023-04-24T04:47:07;4.82;;;4.43;;
3070;SDS011;1546;47.208;9.038;2023-04-24T04:49:37;5.70;;;4.35;;
3070;SDS011;1546;47.208;9.038;2023-04-24T04:52:04;5.90;;;4.35;;
3070;SDS011;1546;47.208;9.038;2023-04-24T04:54:31;5.85;;;3.67;;
3070;SDS011;1546;47.208;9.038;2023-04-24T04:56:58;4.90;;;4.03;;
3070;SDS011;1546;47.208;9.038;2023-04-24T04:59:25;5.63;;;2.80;;
3070;SDS011;1546;47.208;9.038;2023-04-24T05:01:52;6.93;;;2.60;;
3070;SDS011;1546;47.208;9.038;2023-04-24T05:04:19;4.45;;;2.78;;
3070;SDS011;1546;47.208;9.038;2023-04-24T05:06:47;6.90;;;6.07;;
3070;SDS011;1546;47.208;9.038;2023-04-24T05:09:16;4.88;;;4.38;;
3070;SDS011;1546;47.208;9.038;2023-04-24T05:11:43;5.07;;;4.25;;
3070;SDS011;1546;47.208;9.038;2023-04-24T05:14:09;6.28;;;4.22;;
3070;SDS011;1546;47.208;9.038;2023-04-24T05:16:37;4.35;;;3.50;;
3070;SDS011;1546;47.208;9.038;2023-04-24T05:19:05;4.30;;;3.13;;
3070;SDS011;1546;47.208;9.038;2023-04-24T05:21:31;6.45;;;3.50;;
3070;SDS011;1546;47.208;9.038;2023-04-24T05:24:00;4.40;;;3.08;;
3070;SDS011;1546;47.208;9.038;2023-04-24T05:26:26;4.38;;;2.55;;
3070;SDS011;1546;47.208;9.038;2023-04-24T05:28:53;4.75;;;2.58;;
3070;SDS011;1546;47.208;9.038;2023-04-24T05:31:20;4.53;;;2.40;;
3070;SDS011;1546;47.208;9.038;2023-04-24T05:33:47;4.22;;;2.78;;
3070;SDS011;1546;47.208;9.038;2023-04-24T05:36:14;4.72;;;2.40;;
3070;SDS011;1546;47.208;9.038;2023-04-24T05:38:41;4.80;;;3.33;;
3070;SDS011;1546;47.208;9.038;2023-04-24T05:41:09;4.40;;;2.95;;
3070;SDS011;1546;47.208;9.038;2023-04-24T05:43:35;4.30;;;2.80;;
3070;SDS011;1546;47.208;9.038;2023-04-24T05:46:02;4.57;;;3.08;;
3070;SDS011;1546;47.208;9.038;2023-04-24T05:48:29;8.73;;;3.50;;
3070;SDS011;1546;47.208;9.038;2023-04-24T05:50:56;5.47;;;4.13;;
3070;SDS011;1546;47.208;9.038;2023-04-24T05:53:23;3.40;;;1.55;;
3070;SDS011;1546;47.208;9.038;2023-04-24T05:55:50;5.03;;;1.40;;
3070;SDS011;1546;47.208;9.038;2023-04-24T05:58:18;3.40;;;1.75;;
3070;SDS011;1546;47.208;9.038;2023-04-24T06:00:45;3.10;;;1.20;;
3070;SDS011;1546;47.208;9.038;2023-04-24T06:03:12;3.40;;;1.10;;
3070;SDS011;1546;47.208;9.038;2023-04-24T06:05:38;3.67;;;1.40;;
3070;SDS011;1546;47.208;9.038;2023-04-24T06:08:05;3.55;;;1.20;;
3070;SDS011;1546;47.208;9.038;2023-04-24T06:10:32;4.15;;;1.33;;
3070;SDS011;1546;47.208;9.038;2023-04-24T06:12:59;4.63;;;2.15;;
3070;SDS011;1546;47.208;9.038;2023-04-24T06:15:29;3.70;;;2.25;;
3070;SDS011;1546;47.208;9.038;2023-04-24T06:17:56;5.55;;;3.00;;
3070;SDS011;1546;47.208;9.038;2023-04-24T06:20:23;4.60;;;3.92;;
3070;SDS011;1546;47.208;9.038;2023-04-24T06:22:50;4.32;;;3.90;;
3070;SDS011;1546;47.208;9.038;2023-04-24T06:25:17;5.47;;;4.60;;
3070;SDS011;1546;47.208;9.038;2023-04-24T06:27:44;7.10;;;4.95;;
3070;SDS011;1546;47.208;9.038;2023-04-24T06:30:11;4.95;;;4.55;;
3070;SDS011;1546;47.208;9.038;2023-04-24T06:32:40;6.40;;;3.50;;
3070;SDS011;1546;47.208;9.038;2023-04-24T06:35:07;3.55;;;2.33;;
3070;SDS011;1546;47.208;9.038;2023-04-24T06:37:35;5.75;;;2.40;;
3070;SDS011;1546;47.208;9.038;2023-04-24T06:40:02;3.80;;;2.30;;
3070;SDS011;1546;47.208;9.038;2023-04-24T06:42:29;3.35;;;1.95;;
3070;SDS011;1546;47.208;9.038;2023-04-24T06:44:56;3.90;;;2.10;;
3070;SDS011;1546;47.208;9.038;2023-04-24T06:47:23;3.55;;;1.80;;
3070;SDS011;1546;47.208;9.038;2023-04-24T06:49:51;7.13;;;2.10;;
3070;SDS011;1546;47.208;9.038;2023-04-24T06:52:18;13.93;;;2.92;;
3070;SDS011;1546;47.208;9.038;2023-04-24T06:54:45;3.80;;;1.80;;
3070;SDS011;1546;47.208;9.038;2023-04-24T06:57:12;4.60;;;2.15;;
3070;SDS011;1546;47.208;9.038;2023-04-24T06:59:41;3.40;;;2.20;;
3070;SDS011;1546;47.208;9.038;2023-04-24T07:02:07;4.57;;;1.63;;
3070;SDS011;1546;47.208;9.038;2023-04-24T07:04:34;4.57;;;1.80;;
3070;SDS011;1546;47.208;9.038;2023-04-24T07:07:03;3.42;;;1.50;;
3070;SDS011;1546;47.208;9.038;2023-04-24T07:09:31;3.10;;;1.30;;
3070;SDS011;1546;47.208;9.038;2023-04-24T07:12:00;3.47;;;1.95;;
3070;SDS011;1546;47.208;9.038;2023-04-24T07:14:27;3.90;;;1.70;;
3070;SDS011;1546;47.208;9.038;2023-04-24T07:16:53;4.40;;;0.82;;
3070;SDS011;1546;47.208;9.038;2023-04-24T07:19:22;3.28;;;1.02;;
3070;SDS011;1546;47.208;9.038;2023-04-24T07:21:48;3.65;;;1.40;;
3070;SDS011;1546;47.208;9.038;2023-04-24T07:24:17;5.22;;;1.33;;
3070;SDS011;1546;47.208;9.038;2023-04-24T07:26:43;3.40;;;0.93;;
3070;SDS011;1546;47.208;9.038;2023-04-24T07:29:11;3.55;;;1.05;;
3070;SDS011;1546;47.208;9.038;2023-04-24T07:31:38;3.50;;;1.08;;
3070;SDS011;1546;47.208;9.038;2023-04-24T07:34:06;3.25;;;1.10;;
3070;SDS011;1546;47.208;9.038;2023-04-24T07:36:32;3.30;;;1.00;;
3070;SDS011;1546;47.208;9.038;2023-04-24T07:38:59;4.30;;;1.70;;
3070;SDS011;1546;47.208;9.038;2023-04-24T07:41:28;3.58;;;1.33;;
3070;SDS011;1546;47.208;9.038;2023-04-24T07:43:55;3.72;;;1.05;;
3070;SDS011;1546;47.208;9.038;2023-04-24T07:46:21;5.45;;;1.67;;
3070;SDS011;1546;47.208;9.038;2023-04-24T07:48:49;4.20;;;1.58;;
3070;SDS011;1546;47.208;9.038;2023-04-24T07:51:16;3.65;;;1.20;;
3070;SDS011;1546;47.208;9.038;2023-04-24T07:53:43;3.78;;;1.50;;
3070;SDS011;1546;47.208;9.038;2023-04-24T07:56:10;3.83;;;1.20;;
3070;SDS011;1546;47.208;9.038;2023-04-24T07:58:38;3.65;;;1.25;;
3070;SDS011;1546;47.208;9.038;2023-04-24T08:01:05;5.75;;;1.65;;
3070;SDS011;1546;47.208;9.038;2023-04-24T08:03:32;4.15;;;1.70;;
3070;SDS011;1546;47.208;9.038;2023-04-24T08:05:59;4.57;;;1.90;;
3070;SDS011;1546;47.208;9.038;2023-04-24T08:08:27;4.05;;;1.88;;
3070;SDS011;1546;47.208;9.038;2023-04-24T08:10:54;4.40;;;2.20;;
3070;SDS011;1546;47.208;9.038;2023-04-24T08:13:21;6.18;;;2.53;;
3070;SDS011;1546;47.208;9.038;2023-04-24T08:15:49;7.88;;;3.08;;
3070;SDS011;1546;47.208;9.038;2023-04-24T08:18:16;4.15;;;2.00;;
3070;SDS011;1546;47.208;9.038;2023-04-24T08:20:42;3.60;;;1.70;;
3070;SDS011;1546;47.208;9.038;2023-04-24T08:23:10;4.57;;;1.90;;
3070;SDS011;1546;47.208;9.038;2023-04-24T08:25:37;5.47;;;1.80;;
3070;SDS011;1546;47.208;9.038;2023-04-24T08:28:05;3.70;;;1.60;;
3070;SDS011;1546;47.208;9.038;2023-04-24T08:30:32;4.22;;;1.60;;
3070;SDS011;1546;47.208;9.038;2023-04-24T08:33:00;5.05;;;1.80;;
3070;SDS011;1546;47.208;9.038;2023-04-24T08:35:27;7.22;;;1.90;;
3070;SDS011;1546;47.208;9.038;2023-04-24T08:37:54;4.85;;;1.80;;
3070;SDS011;1546;47.208;9.038;2023-04-24T08:40:22;5.10;;;1.70;;
3070;SDS011;1546;47.208;9.038;2023-04-24T08:42:53;5.68;;;1.50;;
3070;SDS011;1546;47.208;9.038;2023-04-24T08:45:21;6.13;;;1.40;;
3070;SDS011;1546;47.208;9.038;2023-04-24T08:47:49;4.50;;;1.63;;
3070;SDS011;1546;47.208;9.038;2023-04-24T08:50:20;4.10;;;1.25;;
3070;SDS011;1546;47.208;9.038;2023-04-24T08:52:49;4.85;;;1.38;;
3070;SDS011;1546;47.208;9.038;2023-04-24T08:55:18;3.67;;;1.35;;
3070;SDS011;1546;47.208;9.038;2023-04-24T08:57:45;3.97;;;1.50;;
3070;SDS011;1546;47.208;9.038;2023-04-24T09:00:17;3.70;;;1.17;;
3070;SDS011;1546;47.208;9.038;2023-04-24T09:02:45;4.38;;;1.30;;
3070;SDS011;1546;47.208;9.038;2023-04-24T09:05:15;4.78;;;1.50;;
3070;SDS011;1546;47.208;9.038;2023-04-24T09:07:45;5.75;;;1.80;;
3070;SDS011;1546;47.208;9.038;2023-04-24T09:10:15;5.50;;;1.48;;
3070;SDS011;1546;47.208;9.038;2023-04-24T09:12:42;4.28;;;1.60;;
3070;SDS011;1546;47.208;9.038;2023-04-24T09:15:11;4.90;;;1.73;;
3070;SDS011;1546;47.208;9.038;2023-04-24T09:17:38;4.13;;;1.50;;
3070;SDS011;1546;47.208;9.038;2023-04-24T09:20:05;5.57;;;1.88;;
3070;SDS011;1546;47.208;9.038;2023-04-24T09:22:33;4.57;;;1.38;;
3070;SDS011;1546;47.208;9.038;2023-04-24T09:25:03;5.45;;;1.50;;
3070;SDS011;1546;47.208;9.038;2023-04-24T09:27:31;4.70;;;1.52;;
3070;SDS011;1546;47.208;9.038;2023-04-24T09:29:59;4.20;;;1.20;;
3070;SDS011;1546;47.208;9.038;2023-04-24T09:32:27;4.25;;;1.35;;
3070;SDS011;1546;47.208;9.038;2023-04-24T09:35:08;4.10;;;1.70;;
3070;SDS011;1546;47.208;9.038;2023-04-24T09:37:37;7.78;;;1.60;;
3070;SDS011;1546;47.208;9.038;2023-04-24T09:40:14;5.30;;;1.75;;
3070;SDS011;1546;47.208;9.038;2023-04-24T09:42:43;4.30;;;1.52;;
3070;SDS011;1546;47.208;9.038;2023-04-24T09:45:11;4.93;;;1.30;;
3070;SDS011;1546;47.208;9.038;2023-04-24T09:47:38;4.43;;;1.60;;
3070;SDS011;1546;47.208;9.038;2023-04-24T09:50:10;6.85;;;1.55;;
3070;SDS011;1546;47.208;9.038;2023-04-24T09:52:42;3.75;;;1.60;;
3070;SDS011;1546;47.208;9.038;2023-04-24T09:55:15;4.10;;;1.52;;
3070;SDS011;1546;47.208;9.038;2023-04-24T09:57:47;4.35;;;1.92;;
3070;SDS011;1546;47.208;9.038;2023-04-24T10:00:23;5.00;;;2.22;;
3070;SDS011;1546;47.208;9.038;2023-04-24T10:02:55;5.60;;;2.50;;
3070;SDS011;1546;47.208;9.038;2023-04-24T10:05:24;6.72;;;3.05;;
3070;SDS011;1546;47.208;9.038;2023-04-24T10:07:55;6.85;;;3.25;;
3070;SDS011;1546;47.208;9.038;2023-04-24T10:10:24;6.53;;;2.70;;
3070;SDS011;1546;47.208;9.038;2023-04-24T10:12:51;5.10;;;2.05;;
3070;SDS011;1546;47.208;9.038;2023-04-24T10:15:19;6.15;;;2.35;;
3070;SDS011;1546;47.208;9.038;2023-04-24T10:17:47;5.55;;;2.10;;
3070;SDS011;1546;47.208;9.038;2023-04-24T10:20:17;6.38;;;2.80;;
3070;SDS011;1546;47.208;9.038;2023-04-24T10:22:46;5.40;;;2.55;;
3070;SDS011;1546;47.208;9.038;2023-04-24T10:25:16;8.48;;;2.65;;
3070;SDS011;1546;47.208;9.038;2023-04-24T10:27:46;4.80;;;2.33;;
3070;SDS011;1546;47.208;9.038;2023-04-24T10:30:14;7.40;;;2.05;;
3070;SDS011;1546;47.208;9.038;2023-04-24T10:32:41;5.95;;;1.80;;
3070;SDS011;1546;47.208;9.038;2023-04-24T10:35:08;5.07;;;2.08;;
3070;SDS011;1546;47.208;9.038;2023-04-24T10:37:36;4.80;;;2.30;;
3070;SDS011;1546;47.208;9.038;2023-04-24T10:40:05;7.20;;;2.00;;
3070;SDS011;1546;47.208;9.038;2023-04-24T10:42:33;5.70;;;2.20;;
3070;SDS011;1546;47.208;9.038;2023-04-24T10:45:06;35.47;;;14.10;;
3070;SDS011;1546;47.208;9.038;2023-04-24T10:47:39;60.05;;;22.95;;
3070;SDS011;1546;47.208;9.038;2023-04-24T10:50:08;26.48;;;13.15;;
3070;SDS011;1546;47.208;9.038;2023-04-24T10:52:45;7.40;;;3.58;;
3070;SDS011;1546;47.208;9.038;2023-04-24T10:55:12;6.90;;;2.33;;
3070;SDS011;1546;47.208;9.038;2023-04-24T10:57:40;7.10;;;2.60;;
3070;SDS011;1546;47.208;9.038;2023-04-24T11:00:29;6.38;;;2.67;;
3070;SDS011;1546;47.208;9.038;2023-04-24T11:02:56;5.00;;;2.50;;
3070;SDS011;1546;47.208;9.038;2023-04-24T11:05:48;9.90;;;2.50;;
3070;SDS011;1546;47.208;9.038;2023-04-24T11:08:22;6.60;;;2.70;;
3070;SDS011;1546;47.208;9.038;2023-04-24T11:11:03;9.15;;;3.10;;
3070;SDS011;1546;47.208;9.038;2023-04-24T11:16:28;5.75;;;2.60;;
3070;SDS011;1546;47.208;9.038;2023-04-24T11:19:00;6.13;;;3.28;;
3070;SDS011;1546;47.208;9.038;2023-04-24T11:21:32;5.53;;;2.63;;
3070;SDS011;1546;47.208;9.038;2023-04-24T11:24:21;6.30;;;2.65;;
3070;SDS011;1546;47.208;9.038;2023-04-24T11:26:50;5.35;;;2.85;;
3070;SDS011;1546;47.208;9.038;2023-04-24T11:29:19;6.93;;;3.30;;
3070;SDS011;1546;47.208;9.038;2023-04-24T11:31:46;7.07;;;2.75;;
3070;SDS011;1546;47.208;9.038;2023-04-24T11:34:16;5.40;;;2.80;;
3070;SDS011;1546;47.208;9.038;2023-04-24T11:36:45;5.60;;;2.83;;
3070;SDS011;1546;47.208;9.038;2023-04-24T11:39:12;5.65;;;2.60;;
3070;SDS011;1546;47.208;9.038;2023-04-24T11:41:40;4.93;;;2.17;;
3070;SDS011;1546;47.208;9.038;2023-04-24T11:44:08;9.13;;;2.88;;
3070;SDS011;1546;47.208;9.038;2023-04-24T11:46:36;6.85;;;2.75;;
3070;SDS011;1546;47.208;9.038;2023-04-24T11:49:05;4.20;;;1.85;;
3070;SDS011;1546;47.208;9.038;2023-04-24T11:51:32;4.47;;;1.95;;
3070;SDS011;1546;47.208;9.038;2023-04-24T11:54:01;4.78;;;2.10;;
3070;SDS011;1546;47.208;9.038;2023-04-24T11:56:29;5.78;;;2.55;;
3070;SDS011;1546;47.208;9.038;2023-04-24T11:58:56;6.80;;;2.22;;
3070;SDS011;1546;47.208;9.038;2023-04-24T12:01:22;6.95;;;2.10;;
3070;SDS011;1546;47.208;9.038;2023-04-24T12:03:51;4.90;;;2.20;;
3070;SDS011;1546;47.208;9.038;2023-04-24T12:06:26;6.45;;;2.55;;
3070;SDS011;1546;47.208;9.038;2023-04-24T12:08:52;4.85;;;2.08;;
3070;SDS011;1546;47.208;9.038;2023-04-24T12:11:24;5.50;;;2.20;;
3070;SDS011;1546;47.208;9.038;2023-04-24T12:13:50;6.32;;;1.92;;
3070;SDS011;1546;47.208;9.038;2023-04-24T12:16:17;6.50;;;2.22;;
3070;SDS011;1546;47.208;9.038;2023-04-24T12:18:44;6.15;;;2.20;;
3070;SDS011;1546;47.208;9.038;2023-04-24T12:21:14;4.70;;;1.83;;
3070;SDS011;1546;47.208;9.038;2023-04-24T12:23:45;4.97;;;1.80;;
3070;SDS011;1546;47.208;9.038;2023-04-24T12:26:12;5.45;;;2.20;;
3070;SDS011;1546;47.208;9.038;2023-04-24T12:28:45;4.90;;;1.95;;
3070;SDS011;1546;47.208;9.038;2023-04-24T12:31:13;5.65;;;2.60;;
3070;SDS011;1546;47.208;9.038;2023-04-24T12:33:40;4.50;;;2.05;;
3070;SDS011;1546;47.208;9.038;2023-04-24T12:36:09;5.13;;;1.90;;
3070;SDS011;1546;47.208;9.038;2023-04-24T12:38:37;7.63;;;2.03;;
3070;SDS011;1546;47.208;9.038;2023-04-24T12:41:06;7.03;;;2.40;;
3070;SDS011;1546;47.208;9.038;2023-04-24T12:43:35;4.65;;;1.73;;
3070;SDS011;1546;47.208;9.038;2023-04-24T12:46:04;7.45;;;2.05;;
3070;SDS011;1546;47.208;9.038;2023-04-24T12:48:31;4.63;;;1.88;;
3070;SDS011;1546;47.208;9.038;2023-04-24T12:50:58;4.38;;;1.67;;
3070;SDS011;1546;47.208;9.038;2023-04-24T12:53:26;6.22;;;2.20;;
3070;SDS011;1546;47.208;9.038;2023-04-24T12:55:56;4.55;;;1.88;;
3070;SDS011;1546;47.208;9.038;2023-04-24T12:58:23;4.40;;;1.77;;
3070;SDS011;1546;47.208;9.038;2023-04-24T13:00:50;5.43;;;2.20;;
3070;SDS011;1546;47.208;9.038;2023-04-24T13:03:18;4.85;;;1.85;;
3070;SDS011;1546;47.208;9.038;2023-04-24T13:05:47;5.68;;;2.17;;
3070;SDS011;1546;47.208;9.038;2023-04-24T13:08:14;5.03;;;2.30;;
3070;SDS011;1546;47.208;9.038;2023-04-24T13:10:41;7.00;;;1.90;;
3070;SDS011;1546;47.208;9.038;2023-04-24T13:13:08;4.35;;;2.13;;
3070;SDS011;1546;47.208;9.038;2023-04-24T13:15:35;4.78;;;2.28;;
3070;SDS011;1546;47.208;9.038;2023-04-24T13:18:01;5.40;;;2.05;;
3070;SDS011;1546;47.208;9.038;2023-04-24T13:20:30;4.47;;;2.10;;
3070;SDS011;1546;47.208;9.038;2023-04-24T13:22:56;4.55;;;1.88;;
3070;SDS011;1546;47.208;9.038;2023-04-24T13:25:23;5.35;;;1.80;;
3070;SDS011;1546;47.208;9.038;2023-04-24T13:27:51;5.72;;;1.65;;
3070;SDS011;1546;47.208;9.038;2023-04-24T13:30:18;6.22;;;2.10;;
3070;SDS011;1546;47.208;9.038;2023-04-24T13:32:45;4.50;;;1.80;;
3070;SDS011;1546;47.208;9.038;2023-04-24T13:35:12;6.00;;;2.35;;
3070;SDS011;1546;47.208;9.038;2023-04-24T13:37:40;4.35;;;1.60;;
3070;SDS011;1546;47.208;9.038;2023-04-24T13:40:07;6.55;;;2.13;;
3070;SDS011;1546;47.208;9.038;2023-04-24T13:42:35;5.35;;;2.40;;
3070;SDS011;1546;47.208;9.038;2023-04-24T13:45:02;6.40;;;2.28;;
3070;SDS011;1546;47.208;9.038;2023-04-24T13:47:30;6.38;;;2.25;;
3070;SDS011;1546;47.208;9.038;2023-04-24T13:49:57;7.28;;;2.38;;
3070;SDS011;1546;47.208;9.038;2023-04-24T13:52:23;4.57;;;2.05;;
3070;SDS011;1546;47.208;9.038;2023-04-24T13:54:51;4.35;;;1.55;;
3070;SDS011;1546;47.208;9.038;2023-04-24T13:57:18;4.40;;;1.70;;
3070;SDS011;1546;47.208;9.038;2023-04-24T13:59:45;5.68;;;2.70;;
3070;SDS011;1546;47.208;9.038;2023-04-24T14:02:12;4.65;;;1.50;;
3070;SDS011;1546;47.208;9.038;2023-04-24T14:04:39;5.43;;;1.20;;
3070;SDS011;1546;47.208;9.038;2023-04-24T14:07:06;9.25;;;2.30;;
3070;SDS011;1546;47.208;9.038;2023-04-24T14:09:34;4.65;;;1.65;;
3070;SDS011;1546;47.208;9.038;2023-04-24T14:12:02;3.80;;;1.52;;
3070;SDS011;1546;47.208;9.038;2023-04-24T14:14:29;5.75;;;2.25;;
3070;SDS011;1546;47.208;9.038;2023-04-24T14:16:56;4.55;;;2.03;;
3070;SDS011;1546;47.208;9.038;2023-04-24T14:19:23;4.38;;;1.95;;
3070;SDS011;1546;47.208;9.038;2023-04-24T14:21:50;7.28;;;2.10;;
3070;SDS011;1546;47.208;9.038;2023-04-24T14:24:17;5.28;;;2.20;;
3070;SDS011;1546;47.208;9.038;2023-04-24T14:26:44;5.18;;;2.20;;
3070;SDS011;1546;47.208;9.038;2023-04-24T14:29:12;5.80;;;2.13;;
3070;SDS011;1546;47.208;9.038;2023-04-24T14:31:40;5.05;;;2.75;;
3070;SDS011;1546;47.208;9.038;2023-04-24T14:34:07;4.47;;;1.90;;
3070;SDS011;1546;47.208;9.038;2023-04-24T14:36:34;6.75;;;2.72;;
3070;SDS011;1546;47.208;9.038;2023-04-24T14:39:01;5.88;;;1.80;;
3070;SDS011;1546;47.208;9.038;2023-04-24T14:41:31;4.93;;;1.95;;
3070;SDS011;1546;47.208;9.038;2023-04-24T14:44:00;5.70;;;1.95;;
3070;SDS011;1546;47.208;9.038;2023-04-24T14:46:29;4.50;;;1.70;;
3070;SDS011;1546;47.208;9.038;2023-04-24T14:48:56;5.80;;;2.38;;
3070;SDS011;1546;47.208;9.038;2023-04-24T14:51:23;4.32;;;1.70;;
3070;SDS011;1546;47.208;9.038;2023-04-24T14:53:50;4.40;;;2.17;;
3070;SDS011;1546;47.208;9.038;2023-04-24T14:56:17;4.75;;;2.30;;
3070;SDS011;1546;47.208;9.038;2023-04-24T14:58:44;5.85;;;1.90;;
3070;SDS011;1546;47.208;9.038;2023-04-24T15:01:11;5.55;;;1.92;;
3070;SDS011;1546;47.208;9.038;2023-04-24T15:03:39;4.32;;;1.90;;
3070;SDS011;1546;47.208;9.038;2023-04-24T15:06:06;4.95;;;1.70;;
3070;SDS011;1546;47.208;9.038;2023-04-24T15:08:33;6.05;;;2.20;;
3070;SDS011;1546;47.208;9.038;2023-04-24T15:11:00;4.53;;;1.90;;
3070;SDS011;1546;47.208;9.038;2023-04-24T15:13:27;5.85;;;2.35;;
3070;SDS011;1546;47.208;9.038;2023-04-24T15:16:07;6.32;;;1.95;;
3070;SDS011;1546;47.208;9.038;2023-04-24T15:18:34;5.60;;;1.70;;
3070;SDS011;1546;47.208;9.038;2023-04-24T15:21:01;4.35;;;2.20;;
3070;SDS011;1546;47.208;9.038;2023-04-24T15:23:28;5.18;;;1.90;;